sensor_id;sensor_type;location;lat;lon;timestamp;P1;durP1;ratioP1;P2;durP2;ratioP2
84966;SDS011;75275;51.348;12.358;2024-03-22T00:00:03;12.85;;;6.68;;
84966;SDS011;75275;51.348;12.358;2024-03-22T00:02:29;11.48;;;6.30;;
84966;SDS011;75275;51.348;12.358;2024-03-22T00:04:56;12.63;;;6.47;;
84966;SDS011;75275;51.348;12.358;2024-03-22T00:07:24;12.60;;;6.28;;
84966;SDS011;75275;51.348;12.358;2024-03-22T00:09:51;14.23;;;7.32;;
84966;SDS011;75275;51.348;12.358;2024-03-22T00:12:16;11.15;;;6.53;;
84966;SDS011;75275;51.348;12.358;2024-03-22T00:14:44;12.48;;;6.75;;
84966;SDS011;75275;51.348;12.358;2024-03-22T00:17:09;15.60;;;7.68;;
84966;SDS011;75275;51.348;12.358;2024-03-22T00:19:38;12.20;;;6.57;;
84966;SDS011;75275;51.348;12.358;2024-03-22T00:22:03;14.63;;;7.05;;
84966;SDS011;75275;51.348;12.358;2024-03-22T00:24:32;13.52;;;6.50;;
84966;SDS011;75275;51.348;12.358;2024-03-22T00:26:58;13.10;;;7.03;;
84966;SDS011;75275;51.348;12.358;2024-03-22T00:29:24;12.63;;;7.80;;
84966;SDS011;75275;51.348;12.358;2024-03-22T00:31:51;14.25;;;7.72;;
84966;SDS011;75275;51.348;12.358;2024-03-22T00:34:18;13.70;;;7.18;;
84966;SDS011;75275;51.348;12.358;2024-03-22T00:36:44;15.43;;;7.85;;
84966;SDS011;75275;51.348;12.358;2024-03-22T00:41:40;15.48;;;7.40;;
84966;SDS011;75275;51.348;12.358;2024-03-22T00:44:08;12.27;;;7.50;;
84966;SDS011;75275;51.348;12.358;2024-03-22T00:46:34;15.02;;;7.63;;
84966;SDS011;75275;51.348;12.358;2024-03-22T00:49:01;16.40;;;8.48;;
84966;SDS011;75275;51.348;12.358;2024-03-22T00:51:27;13.80;;;6.93;;
84966;SDS011;75275;51.348;12.358;2024-03-22T00:53:54;14.30;;;7.50;;
84966;SDS011;75275;51.348;12.358;2024-03-22T00:56:20;13.52;;;7.55;;
84966;SDS011;75275;51.348;12.358;2024-03-22T01:01:14;16.30;;;8.35;;
84966;SDS011;75275;51.348;12.358;2024-03-22T01:06:07;15.98;;;8.57;;
84966;SDS011;75275;51.348;12.358;2024-03-22T01:13:26;16.40;;;8.00;;
84966;SDS011;75275;51.348;12.358;2024-03-22T01:15:53;17.75;;;8.40;;
84966;SDS011;75275;51.348;12.358;2024-03-22T01:18:20;16.73;;;8.02;;
84966;SDS011;75275;51.348;12.358;2024-03-22T01:20:46;17.38;;;9.10;;
84966;SDS011;75275;51.348;12.358;2024-03-22T01:28:05;16.10;;;8.35;;
84966;SDS011;75275;51.348;12.358;2024-03-22T01:30:34;16.83;;;9.02;;
84966;SDS011;75275;51.348;12.358;2024-03-22T01:33:03;17.83;;;9.65;;
84966;SDS011;75275;51.348;12.358;2024-03-22T01:35:29;20.27;;;10.27;;
84966;SDS011;75275;51.348;12.358;2024-03-22T01:42:48;16.23;;;9.18;;
84966;SDS011;75275;51.348;12.358;2024-03-22T01:45:18;20.15;;;10.40;;
84966;SDS011;75275;51.348;12.358;2024-03-22T01:47:45;19.08;;;9.57;;
84966;SDS011;75275;51.348;12.358;2024-03-22T01:50:13;21.25;;;11.13;;
84966;SDS011;75275;51.348;12.358;2024-03-22T01:52:40;20.92;;;10.15;;
84966;SDS011;75275;51.348;12.358;2024-03-22T01:55:06;19.85;;;10.13;;
84966;SDS011;75275;51.348;12.358;2024-03-22T01:57:34;20.70;;;10.98;;
84966;SDS011;75275;51.348;12.358;2024-03-22T02:00:01;18.73;;;9.43;;
84966;SDS011;75275;51.348;12.358;2024-03-22T02:02:29;17.17;;;9.40;;
84966;SDS011;75275;51.348;12.358;2024-03-22T02:04:56;22.45;;;10.40;;
84966;SDS011;75275;51.348;12.358;2024-03-22T02:07:24;20.35;;;10.30;;
84966;SDS011;75275;51.348;12.358;2024-03-22T02:09:55;18.48;;;9.32;;
84966;SDS011;75275;51.348;12.358;2024-03-22T02:12:22;20.42;;;9.73;;
84966;SDS011;75275;51.348;12.358;2024-03-22T02:14:51;21.08;;;9.50;;
84966;SDS011;75275;51.348;12.358;2024-03-22T02:22:10;18.23;;;9.30;;
84966;SDS011;75275;51.348;12.358;2024-03-22T02:24:37;18.33;;;9.55;;
84966;SDS011;75275;51.348;12.358;2024-03-22T02:27:04;19.17;;;10.20;;
84966;SDS011;75275;51.348;12.358;2024-03-22T02:29:30;18.30;;;8.98;;
84966;SDS011;75275;51.348;12.358;2024-03-22T02:34:23;20.60;;;10.52;;
84966;SDS011;75275;51.348;12.358;2024-03-22T02:36:50;18.23;;;9.15;;
84966;SDS011;75275;51.348;12.358;2024-03-22T02:39:16;19.52;;;10.27;;
84966;SDS011;75275;51.348;12.358;2024-03-22T02:44:09;18.58;;;9.45;;
84966;SDS011;75275;51.348;12.358;2024-03-22T02:46:37;20.02;;;9.13;;
84966;SDS011;75275;51.348;12.358;2024-03-22T02:49:02;21.27;;;10.57;;
84966;SDS011;75275;51.348;12.358;2024-03-22T02:56:22;18.45;;;9.05;;
84966;SDS011;75275;51.348;12.358;2024-03-22T02:58:50;16.95;;;8.48;;
84966;SDS011;75275;51.348;12.358;2024-03-22T03:01:17;19.65;;;10.07;;
84966;SDS011;75275;51.348;12.358;2024-03-22T03:03:43;16.67;;;9.27;;
84966;SDS011;75275;51.348;12.358;2024-03-22T03:06:10;18.65;;;9.80;;
84966;SDS011;75275;51.348;12.358;2024-03-22T03:08:38;21.35;;;9.68;;
84966;SDS011;75275;51.348;12.358;2024-03-22T03:11:07;21.42;;;10.90;;
84966;SDS011;75275;51.348;12.358;2024-03-22T03:13:33;20.23;;;9.80;;
84966;SDS011;75275;51.348;12.358;2024-03-22T03:16:02;16.80;;;9.95;;
84966;SDS011;75275;51.348;12.358;2024-03-22T03:18:28;19.67;;;9.98;;
84966;SDS011;75275;51.348;12.358;2024-03-22T03:25:47;18.85;;;8.65;;
84966;SDS011;75275;51.348;12.358;2024-03-22T03:28:13;17.55;;;8.25;;
84966;SDS011;75275;51.348;12.358;2024-03-22T03:30:40;20.25;;;9.35;;
84966;SDS011;75275;51.348;12.358;2024-03-22T03:33:08;17.98;;;8.60;;
84966;SDS011;75275;51.348;12.358;2024-03-22T03:35:35;17.42;;;8.30;;
84966;SDS011;75275;51.348;12.358;2024-03-22T03:38:01;21.95;;;9.13;;
84966;SDS011;75275;51.348;12.358;2024-03-22T03:40:27;15.82;;;8.88;;
84966;SDS011;75275;51.348;12.358;2024-03-22T03:42:53;18.15;;;8.65;;
84966;SDS011;75275;51.348;12.358;2024-03-22T03:45:20;17.88;;;8.20;;
84966;SDS011;75275;51.348;12.358;2024-03-22T03:47:46;15.32;;;7.93;;
84966;SDS011;75275;51.348;12.358;2024-03-22T03:50:14;13.85;;;8.18;;
84966;SDS011;75275;51.348;12.358;2024-03-22T03:52:40;16.15;;;7.45;;
84966;SDS011;75275;51.348;12.358;2024-03-22T03:55:07;14.82;;;8.93;;
84966;SDS011;75275;51.348;12.358;2024-03-22T03:57:33;16.20;;;8.13;;
84966;SDS011;75275;51.348;12.358;2024-03-22T04:04:52;14.52;;;7.43;;
84966;SDS011;75275;51.348;12.358;2024-03-22T04:07:20;15.88;;;8.00;;
84966;SDS011;75275;51.348;12.358;2024-03-22T04:09:47;12.90;;;7.75;;
84966;SDS011;75275;51.348;12.358;2024-03-22T04:12:13;15.00;;;7.07;;
84966;SDS011;75275;51.348;12.358;2024-03-22T04:14:40;15.95;;;8.02;;
84966;SDS011;75275;51.348;12.358;2024-03-22T04:17:06;13.15;;;7.05;;
84966;SDS011;75275;51.348;12.358;2024-03-22T04:21:59;14.35;;;6.97;;
84966;SDS011;75275;51.348;12.358;2024-03-22T04:24:27;12.57;;;6.57;;
84966;SDS011;75275;51.348;12.358;2024-03-22T04:26:53;12.48;;;6.68;;
84966;SDS011;75275;51.348;12.358;2024-03-22T04:34:13;12.55;;;5.55;;
84966;SDS011;75275;51.348;12.358;2024-03-22T04:36:38;10.40;;;5.50;;
84966;SDS011;75275;51.348;12.358;2024-03-22T04:39:06;12.10;;;6.32;;
84966;SDS011;75275;51.348;12.358;2024-03-22T04:41:36;9.77;;;6.22;;
84966;SDS011;75275;51.348;12.358;2024-03-22T04:44:03;9.85;;;6.15;;
84966;SDS011;75275;51.348;12.358;2024-03-22T04:46:30;9.05;;;5.85;;
84966;SDS011;75275;51.348;12.358;2024-03-22T04:49:01;10.98;;;5.43;;
84966;SDS011;75275;51.348;12.358;2024-03-22T04:56:20;8.93;;;5.07;;
84966;SDS011;75275;51.348;12.358;2024-03-22T04:58:47;10.07;;;4.95;;
84966;SDS011;75275;51.348;12.358;2024-03-22T05:01:14;8.60;;;4.88;;
84966;SDS011;75275;51.348;12.358;2024-03-22T05:03:40;9.93;;;5.60;;
84966;SDS011;75275;51.348;12.358;2024-03-22T05:06:08;9.27;;;5.22;;
84966;SDS011;75275;51.348;12.358;2024-03-22T05:08:34;9.02;;;4.97;;
84966;SDS011;75275;51.348;12.358;2024-03-22T05:13:28;10.40;;;5.63;;
84966;SDS011;75275;51.348;12.358;2024-03-22T05:15:56;11.68;;;5.72;;
84966;SDS011;75275;51.348;12.358;2024-03-22T05:18:22;9.77;;;5.30;;
84966;SDS011;75275;51.348;12.358;2024-03-22T05:20:50;9.93;;;5.30;;
84966;SDS011;75275;51.348;12.358;2024-03-22T05:23:15;8.32;;;4.32;;
84966;SDS011;75275;51.348;12.358;2024-03-22T05:25:43;9.68;;;5.15;;
84966;SDS011;75275;51.348;12.358;2024-03-22T05:28:09;7.50;;;4.53;;
84966;SDS011;75275;51.348;12.358;2024-03-22T05:30:36;13.15;;;5.32;;
84966;SDS011;75275;51.348;12.358;2024-03-22T05:33:04;8.75;;;4.78;;
84966;SDS011;75275;51.348;12.358;2024-03-22T05:35:31;8.20;;;5.25;;
84966;SDS011;75275;51.348;12.358;2024-03-22T05:37:57;9.73;;;4.90;;
84966;SDS011;75275;51.348;12.358;2024-03-22T05:40:24;7.57;;;4.72;;
84966;SDS011;75275;51.348;12.358;2024-03-22T05:42:50;7.68;;;4.30;;
84966;SDS011;75275;51.348;12.358;2024-03-22T05:45:17;7.40;;;4.60;;
84966;SDS011;75275;51.348;12.358;2024-03-22T05:47:43;8.60;;;5.03;;
84966;SDS011;75275;51.348;12.358;2024-03-22T05:50:23;9.90;;;5.13;;
84966;SDS011;75275;51.348;12.358;2024-03-22T05:52:49;13.23;;;5.35;;
84966;SDS011;75275;51.348;12.358;2024-03-22T05:55:16;10.13;;;5.10;;
84966;SDS011;75275;51.348;12.358;2024-03-22T05:57:43;8.40;;;5.05;;
84966;SDS011;75275;51.348;12.358;2024-03-22T06:00:11;9.18;;;4.72;;
84966;SDS011;75275;51.348;12.358;2024-03-22T06:02:39;9.00;;;4.63;;
84966;SDS011;75275;51.348;12.358;2024-03-22T06:05:06;10.25;;;4.70;;
84966;SDS011;75275;51.348;12.358;2024-03-22T06:07:34;8.57;;;5.10;;
84966;SDS011;75275;51.348;12.358;2024-03-22T06:10:07;9.55;;;5.13;;
84966;SDS011;75275;51.348;12.358;2024-03-22T06:12:35;8.93;;;4.70;;
84966;SDS011;75275;51.348;12.358;2024-03-22T06:15:02;8.38;;;3.85;;
84966;SDS011;75275;51.348;12.358;2024-03-22T06:17:31;8.45;;;5.00;;
84966;SDS011;75275;51.348;12.358;2024-03-22T06:20:01;8.88;;;4.43;;
84966;SDS011;75275;51.348;12.358;2024-03-22T06:22:27;8.07;;;4.90;;
84966;SDS011;75275;51.348;12.358;2024-03-22T06:24:55;8.85;;;4.97;;
84966;SDS011;75275;51.348;12.358;2024-03-22T06:27:21;6.93;;;4.53;;
84966;SDS011;75275;51.348;12.358;2024-03-22T06:29:48;9.05;;;4.93;;
84966;SDS011;75275;51.348;12.358;2024-03-22T06:32:14;9.90;;;4.93;;
84966;SDS011;75275;51.348;12.358;2024-03-22T06:34:46;8.88;;;5.03;;
84966;SDS011;75275;51.348;12.358;2024-03-22T06:37:16;15.95;;;5.35;;
84966;SDS011;75275;51.348;12.358;2024-03-22T06:39:44;10.38;;;5.25;;
84966;SDS011;75275;51.348;12.358;2024-03-22T06:42:14;9.07;;;5.03;;
84966;SDS011;75275;51.348;12.358;2024-03-22T06:44:41;8.35;;;4.90;;
84966;SDS011;75275;51.348;12.358;2024-03-22T06:47:07;8.65;;;4.82;;
84966;SDS011;75275;51.348;12.358;2024-03-22T06:49:34;10.13;;;5.15;;
84966;SDS011;75275;51.348;12.358;2024-03-22T06:51:59;7.80;;;4.80;;
84966;SDS011;75275;51.348;12.358;2024-03-22T06:54:26;9.57;;;5.13;;
84966;SDS011;75275;51.348;12.358;2024-03-22T06:56:52;9.73;;;5.00;;
84966;SDS011;75275;51.348;12.358;2024-03-22T06:59:20;13.05;;;5.90;;
84966;SDS011;75275;51.348;12.358;2024-03-22T07:01:46;10.25;;;5.35;;
84966;SDS011;75275;51.348;12.358;2024-03-22T07:04:14;11.05;;;6.00;;
84966;SDS011;75275;51.348;12.358;2024-03-22T07:06:39;15.15;;;8.70;;
84966;SDS011;75275;51.348;12.358;2024-03-22T07:09:07;10.43;;;5.72;;
84966;SDS011;75275;51.348;12.358;2024-03-22T07:11:34;11.13;;;5.45;;
84966;SDS011;75275;51.348;12.358;2024-03-22T07:14:01;12.50;;;6.68;;
84966;SDS011;75275;51.348;12.358;2024-03-22T07:16:32;11.18;;;6.07;;
84966;SDS011;75275;51.348;12.358;2024-03-22T07:18:57;10.90;;;6.35;;
84966;SDS011;75275;51.348;12.358;2024-03-22T07:21:24;13.40;;;6.15;;
84966;SDS011;75275;51.348;12.358;2024-03-22T07:23:50;12.38;;;5.82;;
84966;SDS011;75275;51.348;12.358;2024-03-22T07:26:20;15.38;;;6.47;;
84966;SDS011;75275;51.348;12.358;2024-03-22T07:28:46;10.57;;;5.60;;
84966;SDS011;75275;51.348;12.358;2024-03-22T07:31:16;12.40;;;6.35;;
84966;SDS011;75275;51.348;12.358;2024-03-22T07:33:43;11.93;;;6.00;;
84966;SDS011;75275;51.348;12.358;2024-03-22T07:36:10;11.65;;;6.80;;
84966;SDS011;75275;51.348;12.358;2024-03-22T07:38:37;12.27;;;6.75;;
84966;SDS011;75275;51.348;12.358;2024-03-22T07:41:04;14.05;;;7.93;;
84966;SDS011;75275;51.348;12.358;2024-03-22T07:43:30;11.13;;;6.70;;
84966;SDS011;75275;51.348;12.358;2024-03-22T07:45:57;13.40;;;7.15;;
84966;SDS011;75275;51.348;12.358;2024-03-22T07:48:23;15.05;;;7.35;;
84966;SDS011;75275;51.348;12.358;2024-03-22T07:50:57;13.93;;;7.40;;
84966;SDS011;75275;51.348;12.358;2024-03-22T07:53:28;14.20;;;7.28;;
84966;SDS011;75275;51.348;12.358;2024-03-22T07:55:54;14.40;;;7.03;;
84966;SDS011;75275;51.348;12.358;2024-03-22T07:58:20;13.75;;;7.78;;
84966;SDS011;75275;51.348;12.358;2024-03-22T08:00:47;14.52;;;7.13;;
84966;SDS011;75275;51.348;12.358;2024-03-22T08:03:14;13.13;;;6.40;;
84966;SDS011;75275;51.348;12.358;2024-03-22T08:05:42;13.32;;;7.45;;
84966;SDS011;75275;51.348;12.358;2024-03-22T08:08:10;15.45;;;8.38;;
84966;SDS011;75275;51.348;12.358;2024-03-22T08:10:37;14.30;;;8.27;;
84966;SDS011;75275;51.348;12.358;2024-03-22T08:13:03;16.08;;;7.45;;
84966;SDS011;75275;51.348;12.358;2024-03-22T08:15:30;15.57;;;7.88;;
84966;SDS011;75275;51.348;12.358;2024-03-22T08:17:56;15.18;;;9.05;;
84966;SDS011;75275;51.348;12.358;2024-03-22T08:20:23;15.93;;;9.02;;
84966;SDS011;75275;51.348;12.358;2024-03-22T08:22:50;17.27;;;8.88;;
84966;SDS011;75275;51.348;12.358;2024-03-22T08:25:18;15.98;;;9.15;;
84966;SDS011;75275;51.348;12.358;2024-03-22T08:27:45;16.02;;;8.75;;
84966;SDS011;75275;51.348;12.358;2024-03-22T08:30:12;12.82;;;8.13;;
84966;SDS011;75275;51.348;12.358;2024-03-22T08:32:38;18.05;;;10.35;;
84966;SDS011;75275;51.348;12.358;2024-03-22T08:35:06;16.65;;;9.43;;
84966;SDS011;75275;51.348;12.358;2024-03-22T08:37:32;16.25;;;9.55;;
84966;SDS011;75275;51.348;12.358;2024-03-22T08:40:00;18.50;;;10.10;;
84966;SDS011;75275;51.348;12.358;2024-03-22T08:42:27;19.42;;;10.82;;
84966;SDS011;75275;51.348;12.358;2024-03-22T08:44:57;17.63;;;10.82;;
84966;SDS011;75275;51.348;12.358;2024-03-22T08:47:32;19.05;;;10.35;;
84966;SDS011;75275;51.348;12.358;2024-03-22T08:50:02;19.90;;;11.63;;
84966;SDS011;75275;51.348;12.358;2024-03-22T08:52:29;18.20;;;10.43;;
84966;SDS011;75275;51.348;12.358;2024-03-22T08:54:57;17.88;;;10.80;;
84966;SDS011;75275;51.348;12.358;2024-03-22T08:57:23;18.45;;;11.05;;
84966;SDS011;75275;51.348;12.358;2024-03-22T08:59:51;17.27;;;10.15;;
84966;SDS011;75275;51.348;12.358;2024-03-22T09:02:17;24.27;;;12.05;;
84966;SDS011;75275;51.348;12.358;2024-03-22T09:04:45;17.63;;;11.07;;
84966;SDS011;75275;51.348;12.358;2024-03-22T09:07:11;18.05;;;10.15;;
84966;SDS011;75275;51.348;12.358;2024-03-22T09:09:38;21.67;;;11.27;;
84966;SDS011;75275;51.348;12.358;2024-03-22T09:12:04;19.77;;;10.95;;
84966;SDS011;75275;51.348;12.358;2024-03-22T09:14:33;20.90;;;10.85;;
84966;SDS011;75275;51.348;12.358;2024-03-22T09:17:00;17.17;;;10.18;;
84966;SDS011;75275;51.348;12.358;2024-03-22T09:19:28;18.13;;;9.98;;
84966;SDS011;75275;51.348;12.358;2024-03-22T09:21:56;19.65;;;10.98;;
84966;SDS011;75275;51.348;12.358;2024-03-22T09:24:23;18.60;;;10.40;;
84966;SDS011;75275;51.348;12.358;2024-03-22T09:26:49;16.00;;;10.65;;
84966;SDS011;75275;51.348;12.358;2024-03-22T09:29:20;14.98;;;10.18;;
84966;SDS011;75275;51.348;12.358;2024-03-22T09:31:46;17.52;;;10.70;;
84966;SDS011;75275;51.348;12.358;2024-03-22T09:34:21;17.27;;;9.93;;
84966;SDS011;75275;51.348;12.358;2024-03-22T09:36:50;15.68;;;10.00;;
84966;SDS011;75275;51.348;12.358;2024-03-22T09:39:17;16.13;;;10.15;;
84966;SDS011;75275;51.348;12.358;2024-03-22T09:41:43;17.45;;;9.82;;
84966;SDS011;75275;51.348;12.358;2024-03-22T09:44:12;15.95;;;9.00;;
84966;SDS011;75275;51.348;12.358;2024-03-22T09:46:38;13.52;;;8.32;;
84966;SDS011;75275;51.348;12.358;2024-03-22T09:49:07;14.65;;;8.93;;
84966;SDS011;75275;51.348;12.358;2024-03-22T09:51:36;18.70;;;9.55;;
84966;SDS011;75275;51.348;12.358;2024-03-22T09:54:04;13.40;;;8.70;;
84966;SDS011;75275;51.348;12.358;2024-03-22T09:58:57;12.75;;;8.15;;
84966;SDS011;75275;51.348;12.358;2024-03-22T10:01:24;16.45;;;9.40;;
84966;SDS011;75275;51.348;12.358;2024-03-22T10:03:51;14.18;;;8.65;;
84966;SDS011;75275;51.348;12.358;2024-03-22T10:06:20;13.90;;;8.30;;
84966;SDS011;75275;51.348;12.358;2024-03-22T10:08:49;15.80;;;8.05;;
84966;SDS011;75275;51.348;12.358;2024-03-22T10:11:18;13.57;;;7.43;;
84966;SDS011;75275;51.348;12.358;2024-03-22T10:13:46;14.27;;;8.35;;
84966;SDS011;75275;51.348;12.358;2024-03-22T10:16:16;19.83;;;8.82;;
84966;SDS011;75275;51.348;12.358;2024-03-22T10:18:43;14.07;;;8.10;;
84966;SDS011;75275;51.348;12.358;2024-03-22T10:23:36;14.40;;;7.60;;
84966;SDS011;75275;51.348;12.358;2024-03-22T10:26:04;10.90;;;7.28;;
84966;SDS011;75275;51.348;12.358;2024-03-22T10:28:43;14.60;;;7.57;;
84966;SDS011;75275;51.348;12.358;2024-03-22T10:31:10;13.82;;;7.25;;
84966;SDS011;75275;51.348;12.358;2024-03-22T10:33:40;13.38;;;7.45;;
84966;SDS011;75275;51.348;12.358;2024-03-22T10:36:09;12.77;;;7.32;;
84966;SDS011;75275;51.348;12.358;2024-03-22T10:38:38;14.68;;;8.20;;
84966;SDS011;75275;51.348;12.358;2024-03-22T10:41:05;9.98;;;6.70;;
84966;SDS011;75275;51.348;12.358;2024-03-22T10:43:33;13.30;;;7.43;;
84966;SDS011;75275;51.348;12.358;2024-03-22T10:46:01;13.30;;;6.65;;
84966;SDS011;75275;51.348;12.358;2024-03-22T10:48:31;12.38;;;7.10;;
84966;SDS011;75275;51.348;12.358;2024-03-22T10:50:59;14.23;;;7.07;;
84966;SDS011;75275;51.348;12.358;2024-03-22T10:53:28;12.10;;;6.95;;
84966;SDS011;75275;51.348;12.358;2024-03-22T10:55:58;12.15;;;7.20;;
84966;SDS011;75275;51.348;12.358;2024-03-22T10:58:27;11.82;;;7.35;;
84966;SDS011;75275;51.348;12.358;2024-03-22T11:00:55;14.77;;;7.20;;
84966;SDS011;75275;51.348;12.358;2024-03-22T11:03:22;14.27;;;7.63;;
84966;SDS011;75275;51.348;12.358;2024-03-22T11:05:53;13.65;;;8.18;;
84966;SDS011;75275;51.348;12.358;2024-03-22T11:08:23;13.25;;;6.88;;
84966;SDS011;75275;51.348;12.358;2024-03-22T11:10:51;12.98;;;8.32;;
84966;SDS011;75275;51.348;12.358;2024-03-22T11:13:17;13.48;;;8.07;;
84966;SDS011;75275;51.348;12.358;2024-03-22T11:15:48;14.10;;;7.85;;
84966;SDS011;75275;51.348;12.358;2024-03-22T11:18:14;13.75;;;8.35;;
84966;SDS011;75275;51.348;12.358;2024-03-22T11:20:44;13.27;;;8.68;;
84966;SDS011;75275;51.348;12.358;2024-03-22T11:23:10;12.07;;;7.97;;
84966;SDS011;75275;51.348;12.358;2024-03-22T11:25:37;12.98;;;8.60;;
84966;SDS011;75275;51.348;12.358;2024-03-22T11:28:07;14.13;;;8.95;;
84966;SDS011;75275;51.348;12.358;2024-03-22T11:30:38;14.88;;;8.93;;
84966;SDS011;75275;51.348;12.358;2024-03-22T11:33:07;13.80;;;8.68;;
84966;SDS011;75275;51.348;12.358;2024-03-22T11:35:35;12.80;;;8.68;;
84966;SDS011;75275;51.348;12.358;2024-03-22T11:38:01;14.60;;;8.85;;
84966;SDS011;75275;51.348;12.358;2024-03-22T11:40:29;14.98;;;8.38;;
84966;SDS011;75275;51.348;12.358;2024-03-22T11:42:58;14.80;;;8.60;;
84966;SDS011;75275;51.348;12.358;2024-03-22T11:45:27;16.60;;;9.57;;
84966;SDS011;75275;51.348;12.358;2024-03-22T11:47:53;13.48;;;8.82;;
84966;SDS011;75275;51.348;12.358;2024-03-22T11:50:22;13.82;;;8.48;;
84966;SDS011;75275;51.348;12.358;2024-03-22T11:52:48;15.07;;;8.50;;
84966;SDS011;75275;51.348;12.358;2024-03-22T11:55:15;13.23;;;8.68;;
84966;SDS011;75275;51.348;12.358;2024-03-22T11:57:47;15.90;;;9.65;;
84966;SDS011;75275;51.348;12.358;2024-03-22T12:00:16;15.68;;;10.13;;
84966;SDS011;75275;51.348;12.358;2024-03-22T12:02:44;15.45;;;9.40;;
84966;SDS011;75275;51.348;12.358;2024-03-22T12:05:11;16.95;;;9.90;;
84966;SDS011;75275;51.348;12.358;2024-03-22T12:07:39;16.23;;;9.73;;
84966;SDS011;75275;51.348;12.358;2024-03-22T12:10:07;16.65;;;9.93;;
84966;SDS011;75275;51.348;12.358;2024-03-22T12:12:33;17.42;;;9.88;;
84966;SDS011;75275;51.348;12.358;2024-03-22T12:15:01;17.30;;;10.30;;
84966;SDS011;75275;51.348;12.358;2024-03-22T12:17:27;17.92;;;9.45;;
84966;SDS011;75275;51.348;12.358;2024-03-22T12:19:54;18.65;;;10.82;;
84966;SDS011;75275;51.348;12.358;2024-03-22T12:22:21;19.30;;;10.48;;
84966;SDS011;75275;51.348;12.358;2024-03-22T12:24:52;16.30;;;10.30;;
84966;SDS011;75275;51.348;12.358;2024-03-22T12:27:18;18.33;;;10.48;;
84966;SDS011;75275;51.348;12.358;2024-03-22T12:29:44;17.40;;;10.57;;
84966;SDS011;75275;51.348;12.358;2024-03-22T12:32:10;16.55;;;10.52;;
84966;SDS011;75275;51.348;12.358;2024-03-22T12:34:46;16.55;;;11.27;;
84966;SDS011;75275;51.348;12.358;2024-03-22T12:37:12;18.60;;;11.75;;
84966;SDS011;75275;51.348;12.358;2024-03-22T12:39:43;18.13;;;12.70;;
84966;SDS011;75275;51.348;12.358;2024-03-22T12:42:11;18.10;;;11.35;;
84966;SDS011;75275;51.348;12.358;2024-03-22T12:44:39;19.15;;;11.90;;
84966;SDS011;75275;51.348;12.358;2024-03-22T12:47:06;16.60;;;11.15;;
84966;SDS011;75275;51.348;12.358;2024-03-22T12:49:32;19.00;;;11.73;;
84966;SDS011;75275;51.348;12.358;2024-03-22T12:51:59;17.10;;;11.25;;
84966;SDS011;75275;51.348;12.358;2024-03-22T12:54:25;19.13;;;12.02;;
84966;SDS011;75275;51.348;12.358;2024-03-22T12:56:52;20.63;;;12.15;;
84966;SDS011;75275;51.348;12.358;2024-03-22T13:02:03;18.10;;;12.00;;
84966;SDS011;75275;51.348;12.358;2024-03-22T13:04:29;16.30;;;11.90;;
84966;SDS011;75275;51.348;12.358;2024-03-22T13:06:57;17.90;;;12.07;;
84966;SDS011;75275;51.348;12.358;2024-03-22T13:09:22;18.52;;;12.60;;
84966;SDS011;75275;51.348;12.358;2024-03-22T13:11:49;19.98;;;12.38;;
84966;SDS011;75275;51.348;12.358;2024-03-22T13:14:15;17.92;;;11.65;;
84966;SDS011;75275;51.348;12.358;2024-03-22T13:16:45;19.55;;;11.57;;
84966;SDS011;75275;51.348;12.358;2024-03-22T13:19:11;19.33;;;12.55;;
84966;SDS011;75275;51.348;12.358;2024-03-22T13:21:45;18.48;;;11.77;;
84966;SDS011;75275;51.348;12.358;2024-03-22T13:24:13;19.33;;;11.65;;
84966;SDS011;75275;51.348;12.358;2024-03-22T13:26:40;21.33;;;12.65;;
84966;SDS011;75275;51.348;12.358;2024-03-22T13:29:09;18.38;;;11.55;;
84966;SDS011;75275;51.348;12.358;2024-03-22T13:31:39;17.13;;;11.70;;
84966;SDS011;75275;51.348;12.358;2024-03-22T13:34:06;16.83;;;11.77;;
84966;SDS011;75275;51.348;12.358;2024-03-22T13:36:36;17.80;;;11.82;;
84966;SDS011;75275;51.348;12.358;2024-03-22T13:39:03;17.88;;;11.55;;
84966;SDS011;75275;51.348;12.358;2024-03-22T13:41:30;16.88;;;11.85;;
84966;SDS011;75275;51.348;12.358;2024-03-22T13:43:56;17.65;;;11.35;;
84966;SDS011;75275;51.348;12.358;2024-03-22T13:46:23;19.25;;;12.02;;
84966;SDS011;75275;51.348;12.358;2024-03-22T13:48:51;16.40;;;10.38;;
84966;SDS011;75275;51.348;12.358;2024-03-22T13:51:20;16.77;;;11.07;;
84966;SDS011;75275;51.348;12.358;2024-03-22T13:53:46;18.38;;;10.57;;
84966;SDS011;75275;51.348;12.358;2024-03-22T13:56:14;14.57;;;9.68;;
84966;SDS011;75275;51.348;12.358;2024-03-22T13:58:39;15.55;;;10.00;;
84966;SDS011;75275;51.348;12.358;2024-03-22T14:01:06;15.73;;;10.55;;
84966;SDS011;75275;51.348;12.358;2024-03-22T14:03:32;16.38;;;9.52;;
84966;SDS011;75275;51.348;12.358;2024-03-22T14:05:59;16.90;;;10.43;;
84966;SDS011;75275;51.348;12.358;2024-03-22T14:08:27;17.40;;;10.75;;
84966;SDS011;75275;51.348;12.358;2024-03-22T14:10:54;16.08;;;11.20;;
84966;SDS011;75275;51.348;12.358;2024-03-22T14:13:23;18.80;;;10.23;;
84966;SDS011;75275;51.348;12.358;2024-03-22T14:15:50;18.65;;;11.10;;
84966;SDS011;75275;51.348;12.358;2024-03-22T14:18:16;16.85;;;10.32;;
84966;SDS011;75275;51.348;12.358;2024-03-22T14:20:43;16.13;;;10.70;;
84966;SDS011;75275;51.348;12.358;2024-03-22T14:23:08;17.80;;;11.32;;
84966;SDS011;75275;51.348;12.358;2024-03-22T14:25:37;15.90;;;10.35;;
84966;SDS011;75275;51.348;12.358;2024-03-22T14:28:05;18.25;;;10.93;;
84966;SDS011;75275;51.348;12.358;2024-03-22T14:30:32;16.63;;;11.30;;
84966;SDS011;75275;51.348;12.358;2024-03-22T14:32:58;20.33;;;11.40;;
84966;SDS011;75275;51.348;12.358;2024-03-22T14:35:25;14.70;;;10.52;;
84966;SDS011;75275;51.348;12.358;2024-03-22T14:37:51;19.30;;;11.23;;
84966;SDS011;75275;51.348;12.358;2024-03-22T14:40:18;17.60;;;11.05;;
84966;SDS011;75275;51.348;12.358;2024-03-22T14:42:47;14.73;;;10.63;;
84966;SDS011;75275;51.348;12.358;2024-03-22T14:45:14;17.73;;;11.35;;
84966;SDS011;75275;51.348;12.358;2024-03-22T14:47:46;18.35;;;11.30;;
84966;SDS011;75275;51.348;12.358;2024-03-22T14:50:13;19.00;;;10.63;;
84966;SDS011;75275;51.348;12.358;2024-03-22T14:52:39;14.82;;;10.32;;
84966;SDS011;75275;51.348;12.358;2024-03-22T14:55:06;14.43;;;9.93;;
84966;SDS011;75275;51.348;12.358;2024-03-22T14:57:33;17.40;;;10.65;;
84966;SDS011;75275;51.348;12.358;2024-03-22T15:00:03;18.17;;;10.73;;
84966;SDS011;75275;51.348;12.358;2024-03-22T15:02:29;17.48;;;10.25;;
84966;SDS011;75275;51.348;12.358;2024-03-22T15:04:57;16.30;;;10.70;;
84966;SDS011;75275;51.348;12.358;2024-03-22T15:07:23;16.73;;;10.60;;
84966;SDS011;75275;51.348;12.358;2024-03-22T15:09:50;18.05;;;11.93;;
84966;SDS011;75275;51.348;12.358;2024-03-22T15:12:16;18.35;;;11.70;;
84966;SDS011;75275;51.348;12.358;2024-03-22T15:14:46;18.15;;;10.88;;
84966;SDS011;75275;51.348;12.358;2024-03-22T15:17:17;19.10;;;10.88;;
84966;SDS011;75275;51.348;12.358;2024-03-22T15:19:47;17.00;;;10.93;;
84966;SDS011;75275;51.348;12.358;2024-03-22T15:22:14;20.95;;;11.18;;
84966;SDS011;75275;51.348;12.358;2024-03-22T15:24:43;17.30;;;11.13;;
84966;SDS011;75275;51.348;12.358;2024-03-22T15:27:09;18.15;;;11.30;;